createdAt,value
2017-09-15T00:01:19.444Z,59.50
2017-09-15T00:03:46.872Z,60.10
2017-09-15T00:06:14.316Z,60.20
2017-09-15T00:08:41.764Z,60.20
2017-09-15T00:11:09.308Z,60.90
2017-09-15T00:13:36.753Z,61.20
2017-09-15T00:16:04.296Z,61.20
2017-09-15T00:18:31.760Z,61.50
2017-09-15T00:20:59.968Z,62.10
2017-09-15T00:23:27.408Z,62.10
2017-09-15T00:25:54.840Z,61.90
2017-09-15T00:28:22.288Z,62.20
2017-09-15T00:30:49.728Z,62.20
2017-09-15T00:33:17.173Z,62.50
2017-09-15T00:35:44.620Z,62.30
2017-09-15T00:38:12.064Z,62.80
2017-09-15T00:40:39.538Z,62.90
2017-09-15T00:43:06.984Z,63.10
2017-09-15T00:45:34.531Z,63.20
2017-09-15T00:48:01.976Z,63.40
2017-09-15T00:50:29.420Z,63.10
2017-09-15T00:52:56.864Z,63.70
2017-09-15T00:55:25.068Z,63.90
2017-09-15T00:57:52.525Z,63.70
2017-09-15T01:00:19.968Z,63.70
2017-09-15T01:02:47.412Z,64.30
2017-09-15T01:05:14.868Z,63.80
2017-09-15T01:07:42.316Z,64.20
2017-09-15T01:10:09.780Z,64.50
2017-09-15T01:12:37.227Z,64.30
2017-09-15T01:15:04.758Z,64.30
2017-09-15T01:17:32.196Z,63.80
2017-09-15T01:19:59.640Z,63.60
2017-09-15T01:22:27.089Z,63.70
2017-09-15T01:24:54.544Z,63.90
2017-09-15T01:27:22.797Z,64.50
2017-09-15T01:29:50.347Z,64.10
2017-09-15T01:32:17.786Z,64.00
2017-09-15T01:34:45.228Z,63.90
2017-09-15T01:37:12.664Z,63.70
2017-09-15T01:39:40.208Z,63.00
2017-09-15T01:42:09.167Z,63.50
2017-09-15T01:44:36.623Z,63.50
2017-09-15T01:47:04.080Z,63.80
2017-09-15T01:49:31.617Z,63.70
2017-09-15T01:51:59.049Z,63.80
2017-09-15T01:54:26.605Z,63.90
2017-09-15T01:56:54.144Z,63.70
2017-09-15T01:59:21.592Z,63.80
2017-09-15T02:01:49.063Z,63.20
2017-09-15T02:04:17.263Z,63.70
2017-09-15T02:06:44.701Z,63.70
2017-09-15T02:09:12.149Z,64.10
2017-09-15T02:11:39.600Z,63.90
2017-09-15T02:14:07.066Z,64.20
2017-09-15T02:16:34.496Z,64.00
2017-09-15T02:19:01.952Z,64.30
2017-09-15T02:21:29.404Z,64.20
2017-09-15T02:23:57.604Z,64.10
2017-09-15T02:26:25.060Z,64.00
2017-09-15T02:28:52.621Z,64.20
2017-09-15T02:31:20.078Z,64.80
2017-09-15T02:33:47.512Z,65.00
2017-09-15T02:36:14.969Z,65.40
2017-09-15T02:38:42.424Z,65.40
2017-09-15T02:41:10.672Z,65.30
2017-09-15T02:43:38.109Z,65.30
2017-09-15T02:46:05.640Z,65.40
2017-09-15T02:48:33.084Z,65.30
2017-09-15T02:51:00.557Z,65.90
2017-09-15T02:53:28.752Z,67.40
2017-09-15T02:55:56.252Z,66.80
2017-09-15T02:58:23.688Z,66.60
2017-09-15T03:00:51.125Z,68.70
2017-09-15T03:03:18.557Z,68.20
2017-09-15T03:05:46.002Z,68.80
2017-09-15T03:08:13.447Z,69.10
2017-09-15T03:10:40.896Z,69.10
2017-09-15T03:13:08.345Z,68.70
2017-09-15T03:15:35.904Z,68.80
2017-09-15T03:18:03.434Z,68.70
2017-09-15T03:20:30.868Z,68.70
2017-09-15T03:22:58.308Z,69.00
2017-09-15T03:25:25.764Z,68.80
2017-09-15T03:27:53.720Z,69.20
2017-09-15T03:30:21.226Z,68.80
2017-09-15T03:32:48.716Z,68.40
2017-09-15T03:35:16.303Z,67.30
2017-09-15T03:37:43.765Z,68.10
2017-09-15T03:40:11.226Z,67.00
2017-09-15T03:42:38.684Z,68.80
2017-09-15T03:45:06.137Z,67.70
2017-09-15T03:47:34.348Z,67.50
2017-09-15T03:50:01.802Z,68.40
2017-09-15T03:52:29.244Z,67.50
2017-09-15T03:54:56.687Z,67.60
2017-09-15T03:57:24.129Z,67.40
2017-09-15T03:59:51.592Z,67.40
2017-09-15T04:02:19.041Z,67.40
2017-09-15T04:04:46.584Z,67.50
2017-09-15T04:07:14.040Z,67.20
2017-09-15T04:09:42.284Z,67.10
2017-09-15T04:12:09.727Z,67.10
2017-09-15T04:14:37.160Z,66.90
2017-09-15T04:17:04.602Z,67.10
2017-09-15T04:19:32.045Z,66.70
2017-09-15T04:21:59.504Z,68.60
2017-09-15T04:24:26.946Z,68.70
2017-09-15T04:26:54.488Z,68.40
2017-09-15T04:29:22.028Z,68.00
2017-09-15T04:31:49.456Z,67.70
2017-09-15T04:34:16.905Z,68.40
2017-09-15T04:36:44.352Z,68.80
2017-09-15T04:39:11.796Z,68.60
2017-09-15T04:41:39.257Z,68.70
2017-09-15T04:44:07.472Z,68.80
2017-09-15T04:46:34.897Z,68.80
2017-09-15T04:49:02.344Z,68.60
2017-09-15T04:51:29.791Z,68.40
2017-09-15T04:53:57.248Z,68.40
2017-09-15T04:56:24.715Z,68.60
2017-09-15T04:58:52.161Z,68.40
2017-09-15T05:01:19.601Z,68.70
2017-09-15T05:03:47.040Z,68.70
2017-09-15T05:06:14.502Z,68.80
2017-09-15T05:08:41.936Z,69.50
2017-09-15T05:11:09.373Z,69.00
2017-09-15T05:13:36.920Z,69.40
2017-09-15T05:16:04.358Z,69.30
2017-09-15T05:18:31.795Z,69.60
2017-09-15T05:20:59.254Z,69.40
2017-09-15T05:23:27.457Z,68.70
2017-09-15T05:25:54.903Z,68.60
2017-09-15T05:28:22.345Z,68.10
2017-09-15T05:30:49.824Z,66.70
2017-09-15T05:33:17.285Z,66.50
2017-09-15T05:35:44.749Z,66.50
2017-09-15T05:38:13.108Z,66.70
2017-09-15T05:40:41.332Z,69.60
2017-09-15T05:43:08.796Z,69.60
2017-09-15T05:45:37.019Z,67.40
2017-09-15T05:48:04.458Z,67.40
2017-09-15T05:50:31.912Z,66.80
2017-09-15T05:52:59.353Z,66.50
2017-09-15T05:55:26.820Z,65.70
2017-09-15T05:57:54.269Z,65.70
2017-09-15T06:00:21.717Z,66.50
2017-09-15T06:02:50.144Z,65.30
2017-09-15T06:05:17.592Z,65.20
2017-09-15T06:07:45.036Z,65.80
2017-09-15T06:10:12.519Z,64.70
2017-09-15T06:12:40.721Z,64.40
2017-09-15T06:15:08.170Z,64.30
2017-09-15T06:17:35.625Z,64.10
2017-09-15T06:20:03.080Z,63.30
2017-09-15T06:22:30.528Z,63.10
2017-09-15T06:24:58.074Z,63.00
2017-09-15T06:27:25.623Z,62.70
2017-09-15T06:29:53.091Z,61.80
2017-09-15T06:32:21.293Z,60.60
2017-09-15T06:34:48.748Z,60.50
2017-09-15T06:37:16.200Z,59.70
2017-09-15T06:39:43.665Z,58.70
2017-09-15T06:42:11.093Z,57.30
2017-09-15T06:44:38.558Z,56.90
2017-09-15T06:47:06.764Z,55.10
2017-09-15T06:49:34.271Z,55.10
2017-09-15T06:52:02.481Z,53.50
2017-09-15T06:54:29.925Z,53.50
2017-09-15T06:56:57.368Z,53.20
2017-09-15T06:59:24.814Z,52.20
2017-09-15T07:01:52.271Z,51.00
2017-09-15T07:04:19.700Z,51.30
2017-09-15T07:06:47.140Z,50.30
2017-09-15T07:09:14.577Z,49.90
2017-09-15T07:11:42.080Z,49.40
2017-09-15T07:14:09.519Z,49.10
2017-09-15T07:16:36.965Z,48.40
2017-09-15T07:19:04.474Z,47.10
2017-09-15T07:21:31.926Z,46.90
2017-09-15T07:24:00.132Z,47.50
2017-09-15T07:26:27.588Z,46.80
2017-09-15T07:28:55.053Z,45.70
2017-09-15T07:31:22.500Z,46.10
2017-09-15T07:33:49.961Z,45.30
2017-09-15T07:36:18.170Z,44.50
2017-09-15T07:38:45.614Z,44.50
2017-09-15T07:41:13.048Z,43.40
2017-09-15T07:43:40.514Z,44.90
2017-09-15T07:46:07.952Z,43.80
2017-09-15T07:48:35.396Z,43.50
2017-09-15T07:51:02.845Z,42.90
2017-09-15T07:53:30.269Z,41.90
2017-09-15T07:55:58.649Z,42.50
2017-09-15T07:58:26.081Z,41.80
2017-09-15T08:00:53.525Z,41.50
2017-09-15T08:03:20.977Z,40.80
2017-09-15T08:05:48.438Z,39.70
2017-09-15T08:08:17.397Z,40.10
2017-09-15T08:10:44.829Z,40.10
2017-09-15T08:13:12.261Z,38.70
2017-09-15T08:15:39.699Z,39.70
2017-09-15T08:18:07.160Z,38.20
2017-09-15T08:20:34.628Z,38.10
2017-09-15T08:23:02.084Z,37.20
2017-09-15T08:25:30.344Z,38.10
2017-09-15T08:27:57.868Z,38.10
2017-09-15T08:30:25.324Z,38.50
2017-09-15T08:32:52.864Z,39.00
2017-09-15T08:35:20.395Z,37.40
2017-09-15T08:37:47.848Z,37.50
2017-09-15T08:40:15.469Z,37.00
2017-09-15T08:42:42.940Z,38.00
2017-09-15T08:45:10.372Z,37.90
2017-09-15T08:47:37.816Z,38.20
2017-09-15T08:50:05.260Z,37.80
2017-09-15T08:52:32.705Z,38.20
2017-09-15T08:55:00.165Z,37.90
2017-09-15T08:57:27.668Z,38.00
2017-09-15T08:59:55.097Z,37.60
2017-09-15T09:02:22.581Z,36.90
2017-09-15T09:04:50.027Z,36.80
2017-09-15T09:07:17.464Z,37.50
2017-09-15T09:09:45.012Z,36.90
2017-09-15T09:12:12.460Z,36.90
2017-09-15T09:14:39.920Z,35.60
2017-09-15T09:17:08.252Z,36.80
2017-09-15T09:19:35.709Z,36.80
2017-09-15T09:22:03.248Z,37.20
2017-09-15T09:24:30.788Z,37.50
2017-09-15T09:26:58.218Z,36.00
2017-09-15T09:29:25.652Z,36.30
2017-09-15T09:31:53.112Z,35.60
2017-09-15T09:34:20.552Z,35.40
2017-09-15T09:36:48.000Z,35.90
2017-09-15T09:39:15.548Z,35.50
2017-09-15T09:41:42.978Z,35.70
2017-09-15T09:44:10.444Z,35.40
2017-09-15T09:46:37.918Z,34.40
2017-09-15T09:49:05.356Z,34.30
2017-09-15T09:51:32.864Z,34.90
2017-09-15T09:54:00.424Z,33.70
2017-09-15T09:56:28.677Z,32.80
2017-09-15T09:58:56.124Z,32.80
2017-09-15T10:01:24.345Z,33.90
2017-09-15T10:03:51.786Z,33.90
2017-09-15T10:06:19.261Z,33.00
2017-09-15T10:08:46.688Z,33.50
2017-09-15T10:11:14.137Z,31.60
2017-09-15T10:13:41.581Z,31.50
2017-09-15T10:16:09.042Z,32.40
2017-09-15T10:18:36.490Z,31.10
2017-09-15T10:21:04.011Z,31.40
2017-09-15T10:23:31.449Z,31.70
2017-09-15T10:25:58.919Z,31.50
2017-09-15T10:28:26.376Z,30.50
2017-09-15T10:30:54.585Z,31.50
2017-09-15T10:33:22.158Z,31.50
2017-09-15T10:35:49.598Z,29.90
2017-09-15T10:38:17.108Z,31.30
2017-09-15T10:40:44.531Z,30.40
2017-09-15T10:43:11.967Z,30.00
2017-09-15T10:45:40.195Z,30.90
2017-09-15T10:48:07.721Z,30.90
2017-09-15T10:50:35.175Z,30.60
2017-09-15T10:53:02.716Z,31.80
2017-09-15T10:55:30.247Z,31.60
2017-09-15T10:58:03.352Z,31.30
2017-09-15T11:00:31.563Z,32.60
2017-09-15T11:02:59.011Z,32.60
2017-09-15T11:05:26.468Z,32.50
2017-09-15T11:07:53.896Z,33.20
2017-09-15T11:10:21.328Z,31.70
2017-09-15T11:12:48.768Z,33.00
2017-09-15T11:15:16.202Z,32.50
2017-09-15T11:17:43.648Z,32.60
2017-09-15T11:20:11.125Z,32.50
2017-09-15T11:22:38.614Z,33.30
2017-09-15T11:25:06.051Z,32.50
2017-09-15T11:27:33.488Z,31.50
2017-09-15T11:30:01.684Z,31.90
2017-09-15T11:32:29.117Z,31.90
2017-09-15T11:34:56.543Z,31.90
2017-09-15T11:37:23.986Z,32.50
2017-09-15T11:39:52.180Z,30.50
2017-09-15T11:42:19.644Z,30.50
2017-09-15T11:44:47.063Z,31.50
2017-09-15T11:47:14.508Z,31.60
2017-09-15T11:49:41.971Z,32.50
2017-09-15T11:52:09.407Z,33.10
2017-09-15T11:54:36.856Z,32.40
2017-09-15T11:57:04.292Z,32.10
2017-09-15T11:59:31.744Z,32.60
2017-09-15T12:01:59.183Z,30.30
2017-09-15T12:04:27.392Z,28.40
2017-09-15T12:06:54.839Z,28.40
2017-09-15T12:09:22.436Z,31.00
2017-09-15T12:11:49.978Z,31.60
2017-09-15T12:14:17.427Z,33.10
2017-09-15T12:16:44.855Z,33.00
2017-09-15T12:19:12.399Z,33.60
2017-09-15T12:21:39.833Z,33.10
2017-09-15T12:24:07.291Z,31.30
2017-09-15T12:26:34.723Z,30.90
2017-09-15T12:29:02.261Z,30.50
2017-09-15T12:31:29.675Z,29.60
2017-09-15T12:33:57.112Z,29.60
2017-09-15T12:36:24.543Z,30.00
2017-09-15T12:38:52.741Z,31.00
2017-09-15T12:41:20.180Z,31.00
2017-09-15T12:43:47.615Z,31.70
2017-09-15T12:46:15.041Z,32.50
2017-09-15T12:48:42.472Z,32.10
2017-09-15T12:51:09.899Z,32.90
2017-09-15T12:53:38.108Z,33.00
2017-09-15T12:56:05.540Z,33.00
2017-09-15T12:58:32.972Z,32.80
2017-09-15T13:01:00.403Z,32.90
2017-09-15T13:03:27.843Z,32.50
2017-09-15T13:05:56.068Z,32.20
2017-09-15T13:08:23.487Z,32.10
2017-09-15T13:10:50.948Z,31.40
2017-09-15T13:13:18.443Z,30.80
2017-09-15T13:15:45.875Z,31.50
2017-09-15T13:18:13.696Z,31.90
2017-09-15T13:20:41.115Z,32.70
2017-09-15T13:23:08.549Z,33.80
2017-09-15T13:25:35.986Z,33.60
2017-09-15T13:28:03.415Z,33.50
2017-09-15T13:30:30.849Z,33.80
2017-09-15T13:32:58.307Z,34.20
2017-09-15T13:35:25.788Z,34.70
2017-09-15T13:37:53.218Z,35.70
2017-09-15T13:40:20.753Z,36.20
2017-09-15T13:42:48.171Z,36.60
2017-09-15T13:45:15.611Z,36.80
2017-09-15T13:47:43.045Z,37.20
2017-09-15T13:50:10.508Z,36.80
2017-09-15T13:52:37.940Z,37.30
2017-09-15T13:55:05.439Z,36.30
2017-09-15T13:57:32.876Z,36.30
2017-09-15T14:00:00.312Z,36.70
2017-09-15T14:02:27.861Z,36.80
2017-09-15T14:04:55.300Z,35.60
2017-09-15T14:07:24.253Z,37.10
2017-09-15T14:09:51.688Z,37.00
2017-09-15T14:12:19.135Z,35.80
2017-09-15T14:14:46.577Z,34.40
2017-09-15T14:17:14.016Z,35.70
2017-09-15T14:19:41.447Z,35.60
2017-09-15T14:22:08.914Z,35.00
2017-09-15T14:24:36.368Z,34.20
2017-09-15T14:27:03.820Z,34.90
2017-09-15T14:29:32.030Z,33.30
2017-09-15T14:31:59.524Z,33.90
2017-09-15T14:34:26.970Z,33.10
2017-09-15T14:36:54.424Z,32.50
2017-09-15T14:39:22.628Z,32.40
2017-09-15T14:41:50.077Z,32.40
2017-09-15T14:44:17.512Z,33.90
2017-09-15T14:46:44.970Z,33.10
2017-09-15T14:49:12.413Z,32.90
2017-09-15T14:51:39.853Z,32.20
2017-09-15T14:54:07.333Z,32.00
2017-09-15T14:56:34.761Z,32.60
2017-09-15T14:59:02.209Z,32.80
2017-09-15T15:01:29.752Z,33.30
2017-09-15T15:03:57.208Z,32.60
2017-09-15T15:06:25.412Z,33.70
2017-09-15T15:08:53.292Z,33.70
2017-09-15T15:11:20.736Z,34.10
2017-09-15T15:13:48.207Z,34.80
2017-09-15T15:16:15.737Z,33.90
2017-09-15T15:18:43.176Z,33.30
2017-09-15T15:21:10.635Z,33.30
2017-09-15T15:23:38.195Z,33.30
2017-09-15T15:26:06.411Z,33.30
2017-09-15T15:28:33.888Z,33.30
2017-09-15T15:31:01.326Z,33.50
2017-09-15T15:33:29.533Z,34.60
2017-09-15T15:35:57.024Z,34.60
2017-09-15T15:38:24.597Z,35.20
2017-09-15T15:40:52.828Z,34.60
2017-09-15T15:43:20.303Z,34.60
2017-09-15T15:45:48.532Z,35.80
2017-09-15T15:48:16.788Z,35.70
2017-09-15T15:53:18.273Z,36.40
2017-09-15T15:55:45.720Z,37.20
2017-09-15T15:58:13.193Z,37.10
2017-09-15T16:00:40.644Z,37.50
2017-09-15T16:03:08.077Z,38.10
2017-09-15T16:05:35.521Z,37.60
2017-09-15T16:08:02.984Z,37.60
2017-09-15T16:10:30.424Z,37.90
2017-09-15T16:12:57.864Z,37.70
2017-09-15T16:15:25.304Z,38.50
2017-09-15T16:17:52.740Z,39.00
2017-09-15T16:20:20.188Z,37.50
2017-09-15T16:22:47.652Z,38.30
2017-09-15T16:25:15.188Z,38.80
2017-09-15T16:27:42.617Z,38.90
2017-09-15T16:30:10.067Z,38.40
2017-09-15T16:32:37.520Z,38.10
2017-09-15T16:35:05.037Z,38.60
2017-09-15T16:37:31.968Z,39.30
2017-09-15T16:40:05.056Z,39.20
2017-09-15T16:42:38.281Z,39.70
2017-09-15T16:45:11.477Z,39.60
2017-09-15T16:47:44.645Z,40.00
2017-09-15T16:50:12.088Z,40.40
2017-09-15T16:52:39.580Z,40.80
2017-09-15T16:55:07.040Z,41.10
2017-09-15T16:57:35.467Z,41.90
2017-09-15T17:00:02.890Z,41.80
2017-09-15T17:02:30.331Z,42.40
2017-09-15T17:04:57.764Z,42.30
2017-09-15T17:07:25.226Z,43.30
2017-09-15T17:09:52.680Z,43.30
2017-09-15T17:12:20.133Z,44.10
2017-09-15T17:14:47.584Z,44.60
2017-09-15T17:17:15.061Z,45.00
2017-09-15T17:19:43.304Z,45.60
2017-09-15T17:22:10.752Z,45.60
2017-09-15T17:24:38.956Z,47.00
2017-09-15T17:27:06.404Z,47.10
2017-09-15T17:29:33.836Z,46.80
2017-09-15T17:32:01.272Z,47.50
2017-09-15T17:34:28.708Z,48.00
2017-09-15T17:37:06.130Z,47.80
2017-09-15T17:39:33.684Z,47.90
2017-09-15T17:42:01.148Z,48.70
2017-09-15T17:44:29.370Z,49.10
2017-09-15T17:46:56.856Z,49.10
2017-09-15T17:49:25.065Z,49.90
2017-09-15T17:51:52.507Z,49.90
2017-09-15T17:54:19.951Z,50.10
2017-09-15T17:56:47.385Z,49.50
2017-09-15T17:59:14.868Z,50.40
2017-09-15T18:01:42.300Z,50.90
2017-09-15T18:04:09.849Z,50.20
2017-09-15T18:06:37.300Z,50.60
2017-09-15T18:09:04.777Z,50.70
2017-09-15T18:11:32.993Z,50.30
2017-09-15T18:14:00.497Z,50.30
2017-09-15T18:16:28.003Z,50.70
2017-09-15T18:18:56.216Z,50.60
2017-09-15T18:21:23.654Z,50.60
2017-09-15T18:23:51.092Z,51.00
2017-09-15T18:26:18.540Z,50.80
2017-09-15T18:28:46.060Z,50.50
2017-09-15T18:31:13.524Z,50.60
2017-09-15T18:33:40.956Z,50.70
2017-09-15T18:36:08.390Z,51.20
2017-09-15T18:38:35.837Z,50.90
2017-09-15T18:41:03.281Z,51.70
2017-09-15T18:43:30.772Z,50.80
2017-09-15T18:45:58.217Z,51.30
2017-09-15T18:48:25.770Z,51.60
2017-09-15T18:50:53.204Z,51.80
2017-09-15T18:53:21.477Z,52.30
2017-09-15T18:55:49.001Z,52.40
2017-09-15T18:58:16.450Z,52.50
2017-09-15T19:00:44.668Z,53.20
2017-09-15T19:03:12.127Z,53.20
2017-09-15T19:05:39.596Z,53.50
2017-09-15T19:08:07.041Z,54.10
2017-09-15T19:10:34.480Z,54.20
2017-09-15T19:13:01.912Z,54.60
2017-09-15T19:15:29.348Z,54.30
2017-09-15T19:17:56.787Z,54.10
2017-09-15T19:20:24.228Z,54.50
2017-09-15T19:22:51.660Z,54.90
2017-09-15T19:25:19.110Z,55.20
2017-09-15T19:27:46.570Z,55.00
2017-09-15T19:30:13.997Z,54.60
2017-09-15T19:32:41.502Z,54.90
2017-09-15T19:35:09.779Z,55.50
2017-09-15T19:37:37.364Z,55.50
2017-09-15T19:40:04.790Z,55.90
2017-09-15T19:42:32.259Z,55.50
2017-09-15T19:44:59.783Z,55.90
2017-09-15T19:47:27.214Z,55.40
2017-09-15T19:49:54.650Z,55.60
2017-09-15T19:52:22.129Z,55.40
2017-09-15T19:54:49.647Z,55.50
2017-09-15T19:57:17.072Z,55.60
2017-09-15T19:59:44.570Z,55.80
2017-09-15T20:02:12.005Z,55.90
2017-09-15T20:04:39.455Z,56.00
2017-09-15T20:07:06.910Z,56.40
2017-09-15T20:09:34.361Z,57.00
2017-09-15T20:12:02.588Z,58.00
2017-09-15T20:14:30.067Z,58.00
2017-09-15T20:16:58.280Z,58.40
2017-09-15T20:19:25.711Z,58.40
2017-09-15T20:21:53.289Z,58.70
2017-09-15T20:24:20.797Z,59.00
2017-09-15T20:26:48.263Z,59.30
2017-09-15T20:29:15.703Z,59.90
2017-09-15T20:31:43.266Z,60.00
2017-09-15T20:34:10.735Z,60.60
2017-09-15T20:36:38.986Z,60.30
2017-09-15T20:39:06.436Z,60.30
2017-09-15T20:41:34.668Z,60.40
2017-09-15T20:44:02.104Z,60.30
2017-09-15T20:46:29.537Z,60.40
2017-09-15T20:48:56.976Z,60.70
2017-09-15T20:51:24.422Z,60.70
2017-09-15T20:53:51.867Z,60.60
2017-09-15T20:56:19.300Z,61.50
2017-09-15T20:58:46.782Z,61.70
2017-09-15T21:01:15.007Z,61.70
2017-09-15T21:03:42.483Z,61.60
2017-09-15T21:06:09.907Z,61.80
2017-09-15T21:08:37.497Z,61.70
2017-09-15T21:11:05.684Z,61.60
2017-09-15T21:13:33.128Z,61.60
2017-09-15T21:16:00.646Z,61.80
2017-09-15T21:18:28.857Z,61.60
2017-09-15T21:20:56.515Z,61.60
2017-09-15T21:23:23.964Z,61.30
2017-09-15T21:25:51.400Z,61.30
2017-09-15T21:28:20.553Z,60.70
2017-09-15T21:30:48.005Z,60.70
2017-09-15T21:33:15.421Z,60.60
2017-09-15T21:35:42.896Z,60.70
2017-09-15T21:38:10.418Z,60.50
2017-09-15T21:40:37.857Z,60.70
2017-09-15T21:43:05.372Z,60.90
2017-09-15T21:45:33.578Z,61.10
2017-09-15T21:48:01.013Z,61.00
2017-09-15T21:50:28.455Z,61.30
2017-09-15T21:52:55.887Z,61.60
2017-09-15T21:55:23.325Z,61.70
2017-09-15T21:57:50.760Z,62.00
2017-09-15T22:00:18.252Z,62.20
2017-09-15T22:02:45.688Z,62.20
2017-09-15T22:05:13.127Z,62.60
2017-09-15T22:07:40.561Z,63.20
2017-09-15T22:10:08.001Z,63.20
2017-09-15T22:12:35.432Z,63.20
2017-09-15T22:15:02.912Z,63.30
2017-09-15T22:17:30.447Z,63.20
2017-09-15T22:19:57.992Z,63.30
2017-09-15T22:22:25.453Z,63.30
2017-09-15T22:24:52.980Z,63.30
2017-09-15T22:27:20.420Z,63.30
2017-09-15T22:29:47.964Z,63.50
2017-09-15T22:32:15.397Z,63.40
2017-09-15T22:34:42.840Z,63.40
2017-09-15T22:37:10.276Z,63.40
2017-09-15T22:39:37.724Z,63.50
2017-09-15T22:42:05.156Z,63.40
2017-09-15T22:44:32.624Z,63.50
2017-09-15T22:47:00.072Z,63.50
2017-09-15T22:49:27.504Z,63.30
2017-09-15T22:51:54.944Z,64.30
2017-09-15T22:54:31.155Z,64.70
2017-09-15T22:59:32.533Z,65.00
2017-09-15T23:01:59.977Z,64.60
2017-09-15T23:04:27.409Z,64.20
2017-09-15T23:06:54.857Z,64.40
2017-09-15T23:09:22.301Z,64.40
2017-09-15T23:11:49.850Z,64.50
2017-09-15T23:14:17.288Z,64.30
2017-09-15T23:16:44.725Z,64.20
2017-09-15T23:19:12.156Z,64.20
2017-09-15T23:21:39.636Z,64.10
2017-09-15T23:24:07.072Z,64.10
2017-09-15T23:26:34.516Z,64.30
2017-09-15T23:29:02.080Z,64.80
2017-09-15T23:31:30.281Z,64.20
2017-09-15T23:33:57.720Z,64.20
2017-09-15T23:36:25.161Z,64.00
2017-09-15T23:38:52.653Z,63.90
2017-09-15T23:41:20.184Z,63.90
2017-09-15T23:43:47.617Z,64.20
2017-09-15T23:46:15.057Z,64.10
2017-09-15T23:48:42.492Z,64.50
2017-09-15T23:51:10.029Z,64.80
2017-09-15T23:53:37.448Z,65.70
2017-09-15T23:56:04.944Z,65.30
2017-09-15T23:58:32.384Z,65.30
